createdAt,value
2018-12-12T00:00:54.806Z,78.53
2018-12-12T00:03:25.837Z,78.66
2018-12-12T00:05:56.905Z,78.66
2018-12-12T00:08:26.065Z,78.09
2018-12-12T00:10:55.082Z,78.01
2018-12-12T00:13:24.410Z,77.87
2018-12-12T00:15:53.664Z,77.81
2018-12-12T00:18:23.529Z,76.72
2018-12-12T00:20:52.577Z,76.84
2018-12-12T00:23:21.609Z,78.58
2018-12-12T00:25:51.600Z,77.84
2018-12-12T00:28:21.092Z,77.22
2018-12-12T00:30:50.263Z,77.82
2018-12-12T00:33:19.574Z,77.17
2018-12-12T00:35:48.697Z,77.25
2018-12-12T00:38:17.735Z,77.77
2018-12-12T00:40:46.778Z,77.46
2018-12-12T00:43:16.122Z,77.82
2018-12-12T00:45:45.213Z,76.97
2018-12-12T00:48:14.233Z,77.30
2018-12-12T00:50:43.278Z,76.10
2018-12-12T00:53:12.298Z,77.01
2018-12-12T00:55:41.347Z,76.40
2018-12-12T00:58:10.937Z,76.19
2018-12-12T01:00:40.134Z,75.88
2018-12-12T01:03:09.225Z,76.72
2018-12-12T01:05:39.699Z,76.43
2018-12-12T01:08:08.711Z,75.69
2018-12-12T01:10:37.849Z,76.45
2018-12-12T01:13:07.390Z,76.53
2018-12-12T01:15:36.541Z,75.57
2018-12-12T01:18:05.762Z,75.91
2018-12-12T01:20:35.185Z,76.50
2018-12-12T01:23:04.245Z,77.13
2018-12-12T01:25:33.287Z,77.03
2018-12-12T01:28:02.846Z,76.34
2018-12-12T01:30:31.994Z,76.44
2018-12-12T01:33:01.013Z,77.39
2018-12-12T01:35:30.439Z,77.15
2018-12-12T01:37:59.750Z,76.55
2018-12-12T01:40:28.757Z,77.23
2018-12-12T01:42:58.083Z,77.25
2018-12-12T01:45:27.218Z,77.24
2018-12-12T01:47:56.282Z,76.76
2018-12-12T01:50:25.544Z,77.10
2018-12-12T01:52:54.647Z,76.55
2018-12-12T01:55:23.666Z,77.08
2018-12-12T01:57:53.280Z,76.35
2018-12-12T02:00:22.321Z,76.66
2018-12-12T02:02:51.397Z,76.49
2018-12-12T02:05:20.917Z,76.35
2018-12-12T02:07:50.118Z,75.51
2018-12-12T02:10:19.530Z,75.84
2018-12-12T02:15:20.068Z,75.35
2018-12-12T02:17:49.160Z,75.70
2018-12-12T02:20:18.257Z,75.95
2018-12-12T02:22:47.659Z,75.52
2018-12-12T02:25:16.737Z,74.79
2018-12-12T02:27:45.938Z,74.94
2018-12-12T02:30:15.348Z,75.22
2018-12-12T02:32:44.447Z,74.63
2018-12-12T02:35:13.646Z,75.36
2018-12-12T02:37:43.113Z,75.22
2018-12-12T02:40:12.551Z,75.06
2018-12-12T02:42:41.751Z,74.79
2018-12-12T02:45:11.458Z,74.77
2018-12-12T02:47:40.534Z,74.60
2018-12-12T02:50:10.054Z,73.85
2018-12-12T02:52:40.983Z,73.35
2018-12-12T02:55:10.144Z,73.79
2018-12-12T02:57:39.388Z,74.18
2018-12-12T03:00:10.178Z,74.36
2018-12-12T03:02:39.209Z,74.48
2018-12-12T03:05:08.627Z,73.54
2018-12-12T03:07:38.020Z,73.91
2018-12-12T03:10:07.175Z,74.36
2018-12-12T03:12:36.221Z,73.95
2018-12-12T03:15:06.453Z,75.06
2018-12-12T03:17:35.834Z,74.43
2018-12-12T03:20:05.355Z,74.51
2018-12-12T03:22:35.009Z,75.67
2018-12-12T03:25:04.786Z,74.49
2018-12-12T03:27:33.845Z,74.66
2018-12-12T03:30:03.451Z,75.46
2018-12-12T03:32:33.456Z,75.33
2018-12-12T03:35:02.705Z,75.51
2018-12-12T03:37:32.079Z,75.59
2018-12-12T03:40:01.667Z,75.12
2018-12-12T03:42:31.313Z,75.65
2018-12-12T03:45:00.689Z,75.42
2018-12-12T03:47:29.916Z,74.66
2018-12-12T03:49:58.938Z,74.97
2018-12-12T03:52:29.219Z,75.03
2018-12-12T03:54:58.278Z,74.53
2018-12-12T03:57:27.414Z,75.39
2018-12-12T03:59:57.365Z,74.61
2018-12-12T04:02:26.582Z,75.60
2018-12-12T04:04:55.819Z,75.87
2018-12-12T04:07:25.218Z,75.70
2018-12-12T04:09:54.254Z,74.95
2018-12-12T04:12:23.281Z,74.82
2018-12-12T04:14:52.705Z,75.01
2018-12-12T04:17:22.497Z,74.67
2018-12-12T04:19:52.204Z,75.04
2018-12-12T04:22:22.046Z,75.46
2018-12-12T04:24:51.498Z,74.80
2018-12-12T04:27:20.518Z,74.44
2018-12-12T04:29:50.582Z,75.43
2018-12-12T04:32:19.843Z,74.69
2018-12-12T04:34:48.942Z,75.47
2018-12-12T04:37:18.358Z,75.72
2018-12-12T04:39:47.929Z,75.83
2018-12-12T04:42:16.975Z,75.90
2018-12-12T04:44:46.358Z,76.01
2018-12-12T04:47:15.464Z,76.05
2018-12-12T04:49:44.833Z,75.65
2018-12-12T04:52:15.224Z,75.47
2018-12-12T04:54:44.274Z,77.15
2018-12-12T04:57:13.626Z,77.14
2018-12-12T04:59:43.173Z,76.34
2018-12-12T05:02:14.398Z,75.60
2018-12-12T05:04:43.956Z,77.09
2018-12-12T05:07:13.013Z,76.33
2018-12-12T05:09:42.836Z,76.86
2018-12-12T05:12:12.443Z,76.08
2018-12-12T05:14:41.787Z,76.56
2018-12-12T05:17:10.854Z,76.91
2018-12-12T05:19:40.260Z,77.44
2018-12-12T05:22:09.841Z,77.12
2018-12-12T05:24:38.941Z,77.80
2018-12-12T05:27:08.574Z,77.43
2018-12-12T05:29:37.903Z,77.75
2018-12-12T05:32:07.161Z,77.58
2018-12-12T05:34:36.206Z,77.46
2018-12-12T05:37:05.389Z,77.46
2018-12-12T05:39:34.454Z,76.90
2018-12-12T05:42:03.945Z,78.42
2018-12-12T05:44:33.009Z,77.40
2018-12-12T05:47:03.745Z,78.08
2018-12-12T05:49:34.240Z,77.43
2018-12-12T05:52:03.918Z,77.66
2018-12-12T05:54:35.045Z,77.04
2018-12-12T05:57:04.568Z,78.03
2018-12-12T05:59:33.761Z,77.29
2018-12-12T06:02:03.314Z,77.26
2018-12-12T06:04:32.938Z,77.36
2018-12-12T06:07:02.537Z,76.73
2018-12-12T06:09:32.747Z,77.23
2018-12-12T06:12:03.689Z,76.28
2018-12-12T06:14:33.713Z,75.51
2018-12-12T06:17:04.361Z,75.33
2018-12-12T06:19:33.425Z,75.52
2018-12-12T06:22:03.992Z,75.05
2018-12-12T06:24:33.050Z,75.55
2018-12-12T06:27:02.768Z,76.07
2018-12-12T06:29:32.277Z,75.70
2018-12-12T06:32:01.318Z,76.21
2018-12-12T06:34:31.733Z,75.88
2018-12-12T06:37:00.821Z,75.96
2018-12-12T06:39:29.869Z,75.96
2018-12-12T06:41:59.319Z,75.96
2018-12-12T06:44:29.814Z,75.23
2018-12-12T06:46:58.929Z,75.66
2018-12-12T06:49:28.015Z,75.97
2018-12-12T06:51:57.115Z,75.53
2018-12-12T06:54:26.149Z,75.16
2018-12-12T06:56:55.531Z,74.93
2018-12-12T06:59:24.554Z,75.37
2018-12-12T07:01:53.662Z,75.22
2018-12-12T07:04:22.684Z,75.85
2018-12-12T07:06:51.702Z,75.85
2018-12-12T07:09:20.745Z,75.71
2018-12-12T07:11:49.957Z,75.27
2018-12-12T07:14:20.107Z,75.46
2018-12-12T07:16:49.166Z,75.09
2018-12-12T07:19:18.209Z,74.94
2018-12-12T07:21:47.219Z,75.43
2018-12-12T07:24:16.242Z,75.51
2018-12-12T07:26:45.589Z,74.72
2018-12-12T07:29:14.611Z,75.38
2018-12-12T07:31:44.485Z,76.07
2018-12-12T07:34:14.001Z,75.89
2018-12-12T07:36:43.029Z,75.71
2018-12-12T07:39:17.701Z,76.64
2018-12-12T07:41:43.163Z,75.96
2018-12-12T07:44:14.130Z,76.25
2018-12-12T07:47:02.028Z,75.33
2018-12-12T07:49:34.489Z,75.16
2018-12-12T07:52:24.678Z,74.30
2018-12-12T07:54:53.929Z,74.36
2018-12-12T07:57:23.045Z,75.15
2018-12-12T07:59:52.165Z,74.50
2018-12-12T08:02:22.419Z,75.04
2018-12-12T08:04:51.701Z,75.85
2018-12-12T08:07:21.126Z,75.14
2018-12-12T08:09:52.026Z,74.66
2018-12-12T08:12:23.804Z,74.72
2018-12-12T08:14:53.044Z,74.43
2018-12-12T08:17:22.082Z,74.91
2018-12-12T08:19:51.274Z,74.66
2018-12-12T08:22:20.566Z,74.99
2018-12-12T08:24:49.696Z,75.13
2018-12-12T08:27:19.075Z,74.75
2018-12-12T08:29:48.259Z,74.66
2018-12-12T08:32:18.339Z,74.15
2018-12-12T08:34:47.823Z,74.84
2018-12-12T08:37:16.985Z,74.32
2018-12-12T08:39:46.062Z,74.80
2018-12-12T08:42:16.006Z,73.99
2018-12-12T08:44:45.149Z,73.91
2018-12-12T08:47:14.218Z,74.66
2018-12-12T08:49:44.529Z,74.20
2018-12-12T08:52:13.709Z,74.33
2018-12-12T08:54:43.414Z,74.63
2018-12-12T08:57:12.874Z,74.15
2018-12-12T08:59:42.233Z,73.78
2018-12-12T09:02:11.409Z,74.34
2018-12-12T09:04:40.756Z,73.89
2018-12-12T09:07:10.279Z,73.83
2018-12-12T09:09:40.877Z,74.08
2018-12-12T09:12:10.021Z,74.08
2018-12-12T09:14:39.706Z,73.37
2018-12-12T09:17:10.841Z,73.47
2018-12-12T09:19:42.807Z,73.83
2018-12-12T09:22:13.294Z,74.12
2018-12-12T09:24:42.847Z,73.74
2018-12-12T09:27:13.881Z,74.97
2018-12-12T09:29:44.138Z,74.85
2018-12-12T09:32:15.210Z,75.43
2018-12-12T09:34:46.561Z,75.57
2018-12-12T09:37:16.176Z,75.09
2018-12-12T09:39:45.204Z,74.90
2018-12-12T09:42:14.388Z,74.63
2018-12-12T09:44:43.441Z,74.77
2018-12-12T09:47:13.385Z,75.00
2018-12-12T09:49:42.687Z,75.42
2018-12-12T09:52:13.698Z,75.37
2018-12-12T09:54:45.785Z,75.23
2018-12-12T09:57:14.855Z,75.81
2018-12-12T09:59:43.960Z,75.18
2018-12-12T10:02:13.377Z,75.35
2018-12-12T10:04:42.465Z,75.78
2018-12-12T10:07:11.473Z,75.48
2018-12-12T10:09:40.550Z,75.02
2018-12-12T10:12:09.571Z,74.97
2018-12-12T10:14:39.209Z,74.93
2018-12-12T10:17:08.453Z,74.27
2018-12-12T10:19:37.547Z,74.20
2018-12-12T10:22:06.795Z,74.60
2018-12-12T10:24:36.095Z,73.85
2018-12-12T10:27:05.356Z,74.06
2018-12-12T10:29:34.418Z,74.66
2018-12-12T10:32:03.777Z,74.59
2018-12-12T10:34:33.463Z,74.73
2018-12-12T10:37:02.666Z,74.41
2018-12-12T10:39:31.755Z,74.81
2018-12-12T10:42:01.684Z,74.78
2018-12-12T10:44:30.774Z,75.01
2018-12-12T10:47:00.195Z,74.54
2018-12-12T10:49:29.682Z,75.07
2018-12-12T10:51:58.751Z,73.91
2018-12-12T10:54:28.134Z,74.75
2018-12-12T10:56:57.256Z,74.64
2018-12-12T10:59:26.430Z,74.98
2018-12-12T11:02:01.141Z,74.33
2018-12-12T11:04:30.839Z,73.95
2018-12-12T11:07:00.022Z,75.00
2018-12-12T11:09:29.570Z,74.54
2018-12-12T11:11:58.807Z,75.72
2018-12-12T11:14:27.961Z,75.08
2018-12-12T11:16:57.275Z,74.88
2018-12-12T11:19:26.329Z,75.83
2018-12-12T11:21:55.337Z,75.50
2018-12-12T11:24:24.401Z,75.36
2018-12-12T11:26:53.418Z,75.44
2018-12-12T11:29:23.565Z,75.29
2018-12-12T11:31:52.995Z,75.25
2018-12-12T11:34:22.074Z,75.48
2018-12-12T11:36:52.502Z,74.73
2018-12-12T11:39:21.545Z,75.07
2018-12-12T11:41:50.553Z,76.17
2018-12-12T11:44:19.596Z,75.69
2018-12-12T11:46:48.797Z,74.75
2018-12-12T11:49:17.861Z,75.06
2018-12-12T11:51:47.184Z,74.27
2018-12-12T11:54:16.258Z,75.12
2018-12-12T11:56:45.457Z,74.83
2018-12-12T11:59:14.570Z,74.78
2018-12-12T12:01:43.717Z,74.69
2018-12-12T12:04:12.854Z,74.57
2018-12-12T12:06:41.941Z,75.02
2018-12-12T12:09:10.969Z,74.87
2018-12-12T12:11:39.986Z,74.86
2018-12-12T12:14:11.084Z,74.29
2018-12-12T12:16:41.669Z,73.95
2018-12-12T12:19:10.824Z,73.91
2018-12-12T12:21:39.854Z,73.07
2018-12-12T12:24:08.979Z,72.84
2018-12-12T12:26:38.898Z,73.17
2018-12-12T12:29:08.208Z,73.50
2018-12-12T12:31:38.376Z,74.22
2018-12-12T12:34:09.056Z,73.96
2018-12-12T12:36:38.215Z,74.11
2018-12-12T12:39:08.989Z,74.91
2018-12-12T12:41:39.129Z,73.79
2018-12-12T12:44:08.605Z,74.14
2018-12-12T12:46:38.444Z,74.29
2018-12-12T12:49:09.977Z,75.06
2018-12-12T12:51:38.989Z,74.74
2018-12-12T12:54:09.573Z,74.71
2018-12-12T12:56:39.307Z,75.58
2018-12-12T12:59:10.349Z,75.33
2018-12-12T13:02:42.733Z,74.88
2018-12-12T13:05:12.445Z,75.20
2018-12-12T13:07:41.529Z,76.04
2018-12-12T13:10:11.670Z,76.62
2018-12-12T13:12:41.409Z,75.15
2018-12-12T13:15:10.686Z,75.75
2018-12-12T13:17:39.749Z,75.29
2018-12-12T13:20:09.373Z,75.94
2018-12-12T13:22:39.193Z,75.33
2018-12-12T13:25:08.403Z,76.30
2018-12-12T13:27:37.791Z,76.65
2018-12-12T13:30:07.066Z,76.60
2018-12-12T13:32:36.531Z,76.00
2018-12-12T13:35:06.290Z,76.84
2018-12-12T13:37:35.618Z,76.96
2018-12-12T13:40:05.769Z,77.03
2018-12-12T13:42:34.842Z,76.34
2018-12-12T13:45:04.327Z,76.13
2018-12-12T13:47:33.624Z,77.14
2018-12-12T13:50:03.398Z,76.39
2018-12-12T13:52:32.501Z,76.26
2018-12-12T13:55:01.805Z,76.91
2018-12-12T13:57:31.178Z,76.58
2018-12-12T14:00:00.526Z,76.12
2018-12-12T14:02:29.831Z,76.83
2018-12-12T14:04:59.248Z,76.36
2018-12-12T14:07:28.320Z,76.62
2018-12-12T14:09:57.335Z,77.18
2018-12-12T14:12:26.710Z,76.25
2018-12-12T14:14:55.795Z,77.38
2018-12-12T14:17:24.893Z,76.78
2018-12-12T14:19:54.282Z,76.47
2018-12-12T14:22:23.411Z,76.37
2018-12-12T14:24:52.585Z,75.61
2018-12-12T14:27:21.969Z,75.49
2018-12-12T14:29:51.577Z,76.46
2018-12-12T14:32:20.775Z,76.37
2018-12-12T14:34:49.855Z,76.62
2018-12-12T14:37:19.422Z,76.77
2018-12-12T14:39:48.537Z,76.11
2018-12-12T14:42:17.599Z,76.84
2018-12-12T14:44:47.018Z,76.70
2018-12-12T14:47:16.206Z,76.79
2018-12-12T14:49:47.004Z,77.22
2018-12-12T14:52:16.285Z,76.55
2018-12-12T14:54:45.455Z,76.71
2018-12-12T14:57:14.526Z,77.75
2018-12-12T14:59:43.574Z,77.52
2018-12-12T15:02:12.869Z,77.86
2018-12-12T15:04:42.378Z,78.65
2018-12-12T15:07:11.743Z,78.48
2018-12-12T15:09:41.024Z,79.08
2018-12-12T15:12:10.638Z,78.23
2018-12-12T15:14:39.919Z,79.12
2018-12-12T15:17:09.897Z,78.89
2018-12-12T15:19:39.471Z,79.29
2018-12-12T15:22:09.175Z,78.91
2018-12-12T15:24:39.522Z,78.99
2018-12-12T15:27:08.751Z,79.07
2018-12-12T15:29:38.081Z,79.12
2018-12-12T15:32:07.299Z,78.99
2018-12-12T15:34:42.211Z,79.60
2018-12-12T15:37:07.715Z,79.29
2018-12-12T15:39:36.919Z,79.31
2018-12-12T15:42:05.962Z,79.51
2018-12-12T15:44:34.989Z,79.25
2018-12-12T15:47:10.598Z,79.33
2018-12-12T15:49:39.653Z,79.02
2018-12-12T15:52:08.740Z,78.66
2018-12-12T15:54:37.993Z,78.61
2018-12-12T15:57:07.863Z,78.16
2018-12-12T15:59:37.525Z,78.89
2018-12-12T16:02:06.189Z,78.03
2018-12-12T16:04:35.553Z,78.52
2018-12-12T16:07:05.369Z,78.74
2018-12-12T16:09:34.451Z,78.67
2018-12-12T16:12:03.986Z,77.32
2018-12-12T16:14:33.050Z,78.07
2018-12-12T16:17:03.348Z,77.48
2018-12-12T16:19:32.483Z,78.42
2018-12-12T16:22:01.499Z,77.95
2018-12-12T16:24:32.045Z,78.24
2018-12-12T16:27:01.178Z,78.35
2018-12-12T16:29:30.300Z,78.15
2018-12-12T16:31:59.686Z,77.59
2018-12-12T16:34:35.778Z,78.04
2018-12-12T16:37:05.017Z,77.99
2018-12-12T16:39:34.054Z,78.28
2018-12-12T16:42:03.355Z,78.77
2018-12-12T16:44:35.095Z,78.31
2018-12-12T16:47:21.510Z,78.07
2018-12-12T16:49:50.829Z,77.61
2018-12-12T16:52:20.001Z,77.87
2018-12-12T16:54:49.162Z,77.79
2018-12-12T16:57:18.819Z,78.03
2018-12-12T16:59:48.067Z,78.68
2018-12-12T17:02:17.208Z,77.92
2018-12-12T17:04:46.884Z,78.01
2018-12-12T17:07:15.939Z,77.36
2018-12-12T17:09:44.948Z,78.09
2018-12-12T17:12:14.227Z,77.48
2018-12-12T17:14:43.471Z,77.27
2018-12-12T17:17:13.277Z,77.92
2018-12-12T17:19:42.513Z,77.04
2018-12-12T17:22:11.857Z,77.65
2018-12-12T17:24:41.555Z,76.80
2018-12-12T17:27:10.824Z,76.98
2018-12-12T17:29:39.990Z,77.13
2018-12-12T17:32:10.653Z,78.20
2018-12-12T17:34:41.749Z,78.20
2018-12-12T17:37:10.966Z,78.24
2018-12-12T17:39:40.395Z,78.32
2018-12-12T17:42:10.361Z,77.65
2018-12-12T17:44:40.247Z,77.56
2018-12-12T17:47:09.270Z,77.55
2018-12-12T17:49:38.481Z,77.71
2018-12-12T17:52:07.554Z,77.05
2018-12-12T17:54:36.971Z,78.19
2018-12-12T17:57:06.111Z,76.95
2018-12-12T17:59:36.352Z,77.22
2018-12-12T18:02:06.134Z,77.95
2018-12-12T18:04:53.002Z,76.94
2018-12-12T18:07:22.787Z,77.28
2018-12-12T18:09:51.846Z,76.38
2018-12-12T18:12:21.234Z,76.55
2018-12-12T18:14:50.359Z,76.43
2018-12-12T18:17:21.646Z,77.01
2018-12-12T18:19:50.700Z,76.03
2018-12-12T18:22:20.295Z,76.44
2018-12-12T18:24:54.263Z,76.05
2018-12-12T18:27:23.310Z,76.85
2018-12-12T18:29:52.370Z,76.97
2018-12-12T18:32:23.862Z,77.04
2018-12-12T18:35:10.782Z,77.27
2018-12-12T18:37:41.188Z,76.54
2018-12-12T18:40:10.498Z,77.27
2018-12-12T18:42:42.083Z,76.44
2018-12-12T18:45:11.957Z,77.65
2018-12-12T18:47:41.071Z,77.49
2018-12-12T18:50:10.318Z,77.06
2018-12-12T18:52:41.525Z,77.50
2018-12-12T18:55:12.044Z,77.37
2018-12-12T18:57:43.102Z,78.33
2018-12-12T19:00:12.396Z,78.06
2018-12-12T19:02:42.418Z,78.22
2018-12-12T19:05:11.629Z,77.99
2018-12-12T19:07:41.652Z,77.27
2018-12-12T19:10:11.193Z,78.38
2018-12-12T19:12:45.260Z,78.29
2018-12-12T19:15:15.218Z,78.69
2018-12-12T19:17:44.455Z,77.89
2018-12-12T19:20:14.964Z,77.72
2018-12-12T19:22:44.552Z,77.26
2018-12-12T19:25:14.049Z,78.18
2018-12-12T19:27:43.172Z,78.30
2018-12-12T19:30:12.574Z,78.17
2018-12-12T19:32:41.918Z,77.62
2018-12-12T19:35:11.373Z,78.12
2018-12-12T19:37:40.915Z,77.84
2018-12-12T19:40:12.319Z,78.62
2018-12-12T19:42:41.473Z,77.93
2018-12-12T19:45:11.670Z,78.43
2018-12-12T19:47:40.728Z,78.82
2018-12-12T19:50:09.956Z,78.48
2018-12-12T19:52:39.982Z,78.50
2018-12-12T19:55:09.469Z,78.13
2018-12-12T19:57:39.381Z,78.54
2018-12-12T20:00:08.885Z,77.83
2018-12-12T20:02:38.716Z,78.43
2018-12-12T20:05:08.273Z,77.36
2018-12-12T20:07:37.341Z,77.90
2018-12-12T20:10:07.880Z,77.80
2018-12-12T20:12:36.934Z,78.25
2018-12-12T20:15:09.738Z,78.30
2018-12-12T20:17:38.860Z,77.59
2018-12-12T20:20:10.157Z,78.65
2018-12-12T20:22:39.333Z,78.09
2018-12-12T20:25:08.633Z,78.52
2018-12-12T20:27:37.765Z,78.53
2018-12-12T20:30:07.269Z,78.46
2018-12-12T20:32:37.131Z,78.53
2018-12-12T20:35:06.366Z,78.66
2018-12-12T20:37:35.805Z,78.45
2018-12-12T20:40:06.681Z,78.74
2018-12-12T20:42:37.750Z,78.16
2018-12-12T20:45:07.494Z,78.51
2018-12-12T20:47:36.990Z,78.01
2018-12-12T20:50:07.155Z,78.69
2018-12-12T20:52:37.136Z,78.62
2018-12-12T20:55:06.654Z,78.55
2018-12-12T20:57:35.943Z,78.54
2018-12-12T21:00:05.966Z,79.00
2018-12-12T21:02:36.682Z,78.79
2018-12-12T21:05:06.925Z,79.44
2018-12-12T21:07:37.161Z,79.24
2018-12-12T21:10:07.585Z,79.28
2018-12-12T21:12:37.237Z,78.98
2018-12-12T21:15:08.995Z,77.98
2018-12-12T21:17:38.820Z,79.08
2018-12-12T21:20:09.321Z,78.33
2018-12-12T21:22:38.693Z,79.37
2018-12-12T21:25:09.243Z,78.61
2018-12-12T21:27:38.634Z,77.85
2018-12-12T21:30:08.722Z,78.03
2018-12-12T21:32:37.885Z,78.97
2018-12-12T21:35:07.810Z,78.64
2018-12-12T21:37:38.039Z,78.19
2018-12-12T21:40:07.496Z,79.29
2018-12-12T21:42:36.878Z,78.60
2018-12-12T21:45:07.762Z,78.62
2018-12-12T21:47:36.837Z,79.69
2018-12-12T21:50:06.989Z,78.99
2018-12-12T21:52:36.311Z,79.59
2018-12-12T21:55:05.818Z,78.71
2018-12-12T21:57:35.086Z,78.99
2018-12-12T22:00:05.082Z,78.85
2018-12-12T22:02:35.300Z,79.06
2018-12-12T22:05:05.218Z,78.46
2018-12-12T22:07:34.267Z,78.43
2018-12-12T22:10:03.337Z,78.66
2018-12-12T22:12:32.414Z,79.86
2018-12-12T22:15:01.449Z,79.00
2018-12-12T22:17:30.459Z,78.95
2018-12-12T22:19:59.555Z,78.82
2018-12-12T22:22:28.726Z,79.31
2018-12-12T22:24:58.955Z,78.54
2018-12-12T22:27:28.059Z,78.77
2018-12-12T22:29:58.120Z,79.59
2018-12-12T22:32:27.314Z,79.08
2018-12-12T22:34:56.887Z,79.50
2018-12-12T22:37:26.114Z,79.37
2018-12-12T22:39:55.207Z,79.32
2018-12-12T22:42:25.018Z,79.40
2018-12-12T22:44:54.057Z,79.25
2018-12-12T22:47:23.305Z,78.86
2018-12-12T22:49:52.850Z,79.40
2018-12-12T22:52:21.902Z,78.97
2018-12-12T22:54:51.238Z,79.47
2018-12-12T22:59:51.646Z,80.10
2018-12-12T23:02:20.735Z,79.32
2018-12-12T23:04:50.453Z,78.50
2018-12-12T23:07:20.085Z,78.57
2018-12-12T23:09:49.125Z,79.39
2018-12-12T23:12:20.713Z,79.45
2018-12-12T23:14:51.509Z,79.82
2018-12-12T23:17:21.458Z,78.96
2018-12-12T23:19:50.957Z,78.93
2018-12-12T23:22:20.179Z,79.52
2018-12-12T23:24:49.625Z,79.58
2018-12-12T23:27:18.764Z,79.44
2018-12-12T23:29:48.471Z,79.55
2018-12-12T23:32:17.883Z,79.91
2018-12-12T23:34:47.071Z,78.80
2018-12-12T23:37:16.159Z,79.99
2018-12-12T23:39:45.986Z,78.81
2018-12-12T23:42:15.005Z,79.05
2018-12-12T23:44:44.265Z,79.52
2018-12-12T23:47:13.961Z,79.44
2018-12-12T23:49:43.185Z,79.04
2018-12-12T23:52:12.681Z,79.03
2018-12-12T23:54:41.902Z,79.39
2018-12-12T23:57:10.947Z,79.32
2018-12-12T23:59:42.117Z,79.76
